Swinoujscie, Poland
Current Conditions -  °F | °C
As of 9:00 AM on Friday 19 Dec 2014 (Local Time) from EPSC Reporting Station
Light Rain Light Rain  
Wind Chill: 52°   Ceiling: 600
Heat Index: 52°   Visibility: 3mi
Dew Point: 50°   Wind: 13mph
Humidity: 94%   Direction: 230°SW
Pressure: 29.59"   Gusts: NA
Location:  53.91°N, 14.25°E
Report Text: EPSC 190700Z 23011KT 5000 -RA BR BKN006 11/10 Q1002
Loading
Personal Weather Stations






























Interactive Weather Map New forecast layout! Learn more

10-Day Weather Forecast

Advertisements
Track Severe Weather on mobile